sensor_id;sensor_type;location;lat;lon;timestamp;P1;durP1;ratioP1;P2;durP2;ratioP2
9082;SDS011;4577;48.704;9.000;2023-02-28T00:00:19;4.60;;;3.40;;
9082;SDS011;4577;48.704;9.000;2023-02-28T00:02:46;3.63;;;2.70;;
9082;SDS011;4577;48.704;9.000;2023-02-28T00:05:13;2.80;;;2.60;;
9082;SDS011;4577;48.704;9.000;2023-02-28T00:07:40;6.87;;;3.20;;
9082;SDS011;4577;48.704;9.000;2023-02-28T00:10:07;7.97;;;5.17;;
9082;SDS011;4577;48.704;9.000;2023-02-28T00:12:38;5.97;;;4.30;;
9082;SDS011;4577;48.704;9.000;2023-02-28T00:15:05;6.17;;;3.07;;
9082;SDS011;4577;48.704;9.000;2023-02-28T00:17:34;4.50;;;3.00;;
9082;SDS011;4577;48.704;9.000;2023-02-28T00:20:01;9.13;;;3.10;;
9082;SDS011;4577;48.704;9.000;2023-02-28T00:22:43;2.83;;;2.40;;
9082;SDS011;4577;48.704;9.000;2023-02-28T00:25:11;3.43;;;2.83;;
9082;SDS011;4577;48.704;9.000;2023-02-28T00:27:39;4.90;;;3.10;;
9082;SDS011;4577;48.704;9.000;2023-02-28T00:30:06;2.77;;;2.27;;
9082;SDS011;4577;48.704;9.000;2023-02-28T00:32:34;3.70;;;2.87;;
9082;SDS011;4577;48.704;9.000;2023-02-28T00:35:00;4.43;;;2.87;;
9082;SDS011;4577;48.704;9.000;2023-02-28T00:37:26;4.40;;;3.07;;
9082;SDS011;4577;48.704;9.000;2023-02-28T00:39:52;5.03;;;3.13;;
9082;SDS011;4577;48.704;9.000;2023-02-28T00:42:18;3.43;;;2.87;;
9082;SDS011;4577;48.704;9.000;2023-02-28T00:44:43;3.60;;;2.87;;
9082;SDS011;4577;48.704;9.000;2023-02-28T00:47:09;3.60;;;2.87;;
9082;SDS011;4577;48.704;9.000;2023-02-28T00:49:35;2.87;;;2.50;;
9082;SDS011;4577;48.704;9.000;2023-02-28T00:52:01;3.17;;;2.70;;
9082;SDS011;4577;48.704;9.000;2023-02-28T00:54:27;3.60;;;2.90;;
9082;SDS011;4577;48.704;9.000;2023-02-28T00:56:53;3.10;;;2.63;;
9082;SDS011;4577;48.704;9.000;2023-02-28T00:59:19;3.50;;;2.30;;
9082;SDS011;4577;48.704;9.000;2023-02-28T01:01:45;4.00;;;2.83;;
9082;SDS011;4577;48.704;9.000;2023-02-28T01:04:11;3.20;;;2.40;;
9082;SDS011;4577;48.704;9.000;2023-02-28T01:06:38;4.80;;;3.10;;
9082;SDS011;4577;48.704;9.000;2023-02-28T01:09:04;5.37;;;2.90;;
9082;SDS011;4577;48.704;9.000;2023-02-28T01:11:31;4.57;;;2.90;;
9082;SDS011;4577;48.704;9.000;2023-02-28T01:13:57;5.83;;;3.00;;
9082;SDS011;4577;48.704;9.000;2023-02-28T01:16:23;5.90;;;2.90;;
9082;SDS011;4577;48.704;9.000;2023-02-28T01:18:49;5.00;;;2.93;;
9082;SDS011;4577;48.704;9.000;2023-02-28T01:21:16;8.20;;;3.00;;
9082;SDS011;4577;48.704;9.000;2023-02-28T01:23:44;6.87;;;3.40;;
9082;SDS011;4577;48.704;9.000;2023-02-28T01:26:11;14.20;;;3.37;;
9082;SDS011;4577;48.704;9.000;2023-02-28T01:28:39;3.50;;;2.80;;
9082;SDS011;4577;48.704;9.000;2023-02-28T01:31:05;4.40;;;2.83;;
9082;SDS011;4577;48.704;9.000;2023-02-28T01:33:32;4.07;;;2.90;;
9082;SDS011;4577;48.704;9.000;2023-02-28T01:36:02;4.43;;;2.87;;
9082;SDS011;4577;48.704;9.000;2023-02-28T01:38:33;4.97;;;3.00;;
9082;SDS011;4577;48.704;9.000;2023-02-28T01:40:59;6.83;;;3.40;;
9082;SDS011;4577;48.704;9.000;2023-02-28T01:43:26;4.10;;;2.90;;
9082;SDS011;4577;48.704;9.000;2023-02-28T01:45:53;3.50;;;3.00;;
9082;SDS011;4577;48.704;9.000;2023-02-28T01:48:22;4.50;;;3.10;;
9082;SDS011;4577;48.704;9.000;2023-02-28T01:50:51;4.90;;;3.53;;
9082;SDS011;4577;48.704;9.000;2023-02-28T01:53:19;5.83;;;3.40;;
9082;SDS011;4577;48.704;9.000;2023-02-28T01:55:50;10.30;;;3.60;;
9082;SDS011;4577;48.704;9.000;2023-02-28T01:58:18;5.63;;;3.80;;
9082;SDS011;4577;48.704;9.000;2023-02-28T02:00:44;5.57;;;3.30;;
9082;SDS011;4577;48.704;9.000;2023-02-28T02:03:13;4.90;;;3.23;;
9082;SDS011;4577;48.704;9.000;2023-02-28T02:05:43;6.30;;;4.27;;
9082;SDS011;4577;48.704;9.000;2023-02-28T02:08:13;3.70;;;2.80;;
9082;SDS011;4577;48.704;9.000;2023-02-28T02:10:47;5.87;;;3.77;;
9082;SDS011;4577;48.704;9.000;2023-02-28T02:18:49;5.57;;;3.87;;
9082;SDS011;4577;48.704;9.000;2023-02-28T02:24:23;3.80;;;3.43;;
9082;SDS011;4577;48.704;9.000;2023-02-28T02:27:33;4.80;;;3.63;;
9082;SDS011;4577;48.704;9.000;2023-02-28T02:35:24;8.93;;;4.10;;
9082;SDS011;4577;48.704;9.000;2023-02-28T02:43:18;7.73;;;4.10;;
9082;SDS011;4577;48.704;9.000;2023-02-28T02:45:54;6.37;;;4.23;;
9082;SDS011;4577;48.704;9.000;2023-02-28T02:48:25;6.50;;;4.40;;
9082;SDS011;4577;48.704;9.000;2023-02-28T02:50:55;9.80;;;4.33;;
9082;SDS011;4577;48.704;9.000;2023-02-28T02:53:34;5.80;;;4.17;;
9082;SDS011;4577;48.704;9.000;2023-02-28T02:56:03;5.40;;;3.90;;
9082;SDS011;4577;48.704;9.000;2023-02-28T02:58:32;5.50;;;3.67;;
9082;SDS011;4577;48.704;9.000;2023-02-28T03:01:07;9.07;;;4.43;;
9082;SDS011;4577;48.704;9.000;2023-02-28T03:03:39;5.20;;;4.10;;
9082;SDS011;4577;48.704;9.000;2023-02-28T03:06:05;7.50;;;4.40;;
9082;SDS011;4577;48.704;9.000;2023-02-28T03:08:35;5.67;;;4.10;;
9082;SDS011;4577;48.704;9.000;2023-02-28T03:11:03;6.50;;;4.10;;
9082;SDS011;4577;48.704;9.000;2023-02-28T03:21:04;7.27;;;4.13;;
9082;SDS011;4577;48.704;9.000;2023-02-28T03:23:53;5.87;;;4.30;;
9082;SDS011;4577;48.704;9.000;2023-02-28T03:26:41;5.83;;;3.90;;
9082;SDS011;4577;48.704;9.000;2023-02-28T03:32:06;6.27;;;4.77;;
9082;SDS011;4577;48.704;9.000;2023-02-28T03:34:48;5.40;;;4.10;;
9082;SDS011;4577;48.704;9.000;2023-02-28T03:37:23;6.63;;;4.13;;
9082;SDS011;4577;48.704;9.000;2023-02-28T03:40:01;6.57;;;4.37;;
9082;SDS011;4577;48.704;9.000;2023-02-28T03:42:31;8.37;;;4.33;;
9082;SDS011;4577;48.704;9.000;2023-02-28T03:45:02;8.60;;;4.80;;
9082;SDS011;4577;48.704;9.000;2023-02-28T03:47:36;6.57;;;4.67;;
9082;SDS011;4577;48.704;9.000;2023-02-28T03:50:27;7.10;;;4.93;;
9082;SDS011;4577;48.704;9.000;2023-02-28T03:55:49;7.13;;;4.47;;
9082;SDS011;4577;48.704;9.000;2023-02-28T03:58:32;7.20;;;4.50;;
9082;SDS011;4577;48.704;9.000;2023-02-28T04:01:20;10.13;;;4.90;;
9082;SDS011;4577;48.704;9.000;2023-02-28T04:03:55;6.70;;;5.03;;
9082;SDS011;4577;48.704;9.000;2023-02-28T04:06:21;7.07;;;5.17;;
9082;SDS011;4577;48.704;9.000;2023-02-28T04:08:48;7.67;;;5.00;;
9082;SDS011;4577;48.704;9.000;2023-02-28T04:13:40;8.30;;;5.30;;
9082;SDS011;4577;48.704;9.000;2023-02-28T04:16:09;8.80;;;5.13;;
9082;SDS011;4577;48.704;9.000;2023-02-28T04:18:41;7.00;;;5.17;;
9082;SDS011;4577;48.704;9.000;2023-02-28T04:21:10;14.70;;;5.17;;
9082;SDS011;4577;48.704;9.000;2023-02-28T04:23:35;8.10;;;4.97;;
9082;SDS011;4577;48.704;9.000;2023-02-28T04:26:01;8.00;;;5.10;;
9082;SDS011;4577;48.704;9.000;2023-02-28T04:28:27;11.60;;;6.00;;
9082;SDS011;4577;48.704;9.000;2023-02-28T04:30:56;7.10;;;5.23;;
9082;SDS011;4577;48.704;9.000;2023-02-28T04:33:27;8.30;;;5.67;;
9082;SDS011;4577;48.704;9.000;2023-02-28T04:36:03;7.27;;;5.43;;
9082;SDS011;4577;48.704;9.000;2023-02-28T04:38:34;8.20;;;5.43;;
9082;SDS011;4577;48.704;9.000;2023-02-28T04:41:01;9.83;;;5.40;;
9082;SDS011;4577;48.704;9.000;2023-02-28T04:43:27;6.67;;;4.73;;
9082;SDS011;4577;48.704;9.000;2023-02-28T04:45:55;8.30;;;4.90;;
9082;SDS011;4577;48.704;9.000;2023-02-28T04:48:21;7.90;;;5.27;;
9082;SDS011;4577;48.704;9.000;2023-02-28T04:50:52;6.70;;;4.80;;
9082;SDS011;4577;48.704;9.000;2023-02-28T04:53:18;8.70;;;5.60;;
9082;SDS011;4577;48.704;9.000;2023-02-28T04:55:44;7.10;;;5.37;;
9082;SDS011;4577;48.704;9.000;2023-02-28T04:58:11;9.63;;;5.37;;
9082;SDS011;4577;48.704;9.000;2023-02-28T05:00:37;8.73;;;5.17;;
9082;SDS011;4577;48.704;9.000;2023-02-28T05:03:02;9.20;;;5.60;;
9082;SDS011;4577;48.704;9.000;2023-02-28T05:05:28;9.93;;;6.07;;
9082;SDS011;4577;48.704;9.000;2023-02-28T05:07:54;9.50;;;5.17;;
9082;SDS011;4577;48.704;9.000;2023-02-28T05:10:21;8.63;;;5.07;;
9082;SDS011;4577;48.704;9.000;2023-02-28T05:12:48;8.53;;;5.30;;
9082;SDS011;4577;48.704;9.000;2023-02-28T05:15:14;8.40;;;5.10;;
9082;SDS011;4577;48.704;9.000;2023-02-28T05:17:41;7.63;;;5.37;;
9082;SDS011;4577;48.704;9.000;2023-02-28T05:20:08;8.60;;;4.90;;
9082;SDS011;4577;48.704;9.000;2023-02-28T05:22:38;6.70;;;5.27;;
9082;SDS011;4577;48.704;9.000;2023-02-28T05:25:05;8.77;;;5.47;;
9082;SDS011;4577;48.704;9.000;2023-02-28T05:27:31;10.50;;;5.43;;
9082;SDS011;4577;48.704;9.000;2023-02-28T05:29:57;8.70;;;5.63;;
9082;SDS011;4577;48.704;9.000;2023-02-28T05:32:24;8.60;;;6.10;;
9082;SDS011;4577;48.704;9.000;2023-02-28T05:34:50;8.47;;;6.10;;
9082;SDS011;4577;48.704;9.000;2023-02-28T05:37:16;17.43;;;6.70;;
9082;SDS011;4577;48.704;9.000;2023-02-28T05:39:42;8.00;;;5.70;;
9082;SDS011;4577;48.704;9.000;2023-02-28T05:42:08;8.30;;;5.70;;
9082;SDS011;4577;48.704;9.000;2023-02-28T05:44:34;10.33;;;6.50;;
9082;SDS011;4577;48.704;9.000;2023-02-28T05:47:00;9.40;;;6.07;;
9082;SDS011;4577;48.704;9.000;2023-02-28T05:49:26;8.80;;;5.47;;
9082;SDS011;4577;48.704;9.000;2023-02-28T05:51:52;7.50;;;6.00;;
9082;SDS011;4577;48.704;9.000;2023-02-28T05:54:18;9.80;;;6.03;;
9082;SDS011;4577;48.704;9.000;2023-02-28T05:56:44;9.50;;;6.37;;
9082;SDS011;4577;48.704;9.000;2023-02-28T05:59:11;9.30;;;6.17;;
9082;SDS011;4577;48.704;9.000;2023-02-28T06:01:38;9.43;;;6.30;;
9082;SDS011;4577;48.704;9.000;2023-02-28T06:04:13;15.80;;;8.23;;
9082;SDS011;4577;48.704;9.000;2023-02-28T06:06:43;10.43;;;7.03;;
9082;SDS011;4577;48.704;9.000;2023-02-28T06:09:10;13.50;;;7.87;;
9082;SDS011;4577;48.704;9.000;2023-02-28T06:11:36;18.10;;;7.03;;
9082;SDS011;4577;48.704;9.000;2023-02-28T06:14:02;11.87;;;6.90;;
9082;SDS011;4577;48.704;9.000;2023-02-28T06:16:29;16.63;;;8.43;;
9082;SDS011;4577;48.704;9.000;2023-02-28T06:18:59;12.33;;;8.27;;
9082;SDS011;4577;48.704;9.000;2023-02-28T06:21:27;13.93;;;6.90;;
9082;SDS011;4577;48.704;9.000;2023-02-28T06:23:53;15.83;;;6.40;;
9082;SDS011;4577;48.704;9.000;2023-02-28T06:26:19;10.73;;;6.80;;
9082;SDS011;4577;48.704;9.000;2023-02-28T06:28:45;32.20;;;8.50;;
9082;SDS011;4577;48.704;9.000;2023-02-28T06:31:13;9.47;;;6.33;;
9082;SDS011;4577;48.704;9.000;2023-02-28T06:33:40;18.53;;;7.90;;
9082;SDS011;4577;48.704;9.000;2023-02-28T06:36:07;30.10;;;8.90;;
9082;SDS011;4577;48.704;9.000;2023-02-28T06:38:34;15.90;;;6.63;;
9082;SDS011;4577;48.704;9.000;2023-02-28T06:41:00;28.30;;;9.70;;
9082;SDS011;4577;48.704;9.000;2023-02-28T06:43:28;9.90;;;6.83;;
9082;SDS011;4577;48.704;9.000;2023-02-28T06:45:55;10.50;;;7.00;;
9082;SDS011;4577;48.704;9.000;2023-02-28T06:48:22;9.80;;;6.70;;
9082;SDS011;4577;48.704;9.000;2023-02-28T06:50:48;15.73;;;8.30;;
9082;SDS011;4577;48.704;9.000;2023-02-28T06:53:14;20.47;;;8.40;;
9082;SDS011;4577;48.704;9.000;2023-02-28T06:55:40;18.73;;;8.47;;
9082;SDS011;4577;48.704;9.000;2023-02-28T06:58:06;17.83;;;8.60;;
9082;SDS011;4577;48.704;9.000;2023-02-28T07:00:44;19.10;;;9.23;;
9082;SDS011;4577;48.704;9.000;2023-02-28T07:03:11;22.80;;;10.20;;
9082;SDS011;4577;48.704;9.000;2023-02-28T07:05:38;22.53;;;12.10;;
9082;SDS011;4577;48.704;9.000;2023-02-28T07:08:05;19.20;;;8.67;;
9082;SDS011;4577;48.704;9.000;2023-02-28T07:10:31;16.00;;;8.20;;
9082;SDS011;4577;48.704;9.000;2023-02-28T07:12:58;19.60;;;8.23;;
9082;SDS011;4577;48.704;9.000;2023-02-28T07:15:24;13.37;;;7.67;;
9082;SDS011;4577;48.704;9.000;2023-02-28T07:17:50;16.70;;;7.60;;
9082;SDS011;4577;48.704;9.000;2023-02-28T07:20:16;15.00;;;7.93;;
9082;SDS011;4577;48.704;9.000;2023-02-28T07:22:42;62.07;;;13.60;;
9082;SDS011;4577;48.704;9.000;2023-02-28T07:25:08;29.93;;;10.23;;
9082;SDS011;4577;48.704;9.000;2023-02-28T07:27:34;26.10;;;10.03;;
9082;SDS011;4577;48.704;9.000;2023-02-28T07:30:00;28.57;;;10.17;;
9082;SDS011;4577;48.704;9.000;2023-02-28T07:32:28;15.70;;;8.33;;
9082;SDS011;4577;48.704;9.000;2023-02-28T07:34:54;18.90;;;9.57;;
9082;SDS011;4577;48.704;9.000;2023-02-28T07:37:20;16.67;;;9.00;;
9082;SDS011;4577;48.704;9.000;2023-02-28T07:39:46;17.33;;;8.60;;
9082;SDS011;4577;48.704;9.000;2023-02-28T07:42:11;19.90;;;9.13;;
9082;SDS011;4577;48.704;9.000;2023-02-28T07:44:40;14.60;;;8.10;;
9082;SDS011;4577;48.704;9.000;2023-02-28T07:47:06;14.67;;;8.47;;
9082;SDS011;4577;48.704;9.000;2023-02-28T07:49:34;19.10;;;7.53;;
9082;SDS011;4577;48.704;9.000;2023-02-28T07:52:03;16.57;;;8.13;;
9082;SDS011;4577;48.704;9.000;2023-02-28T07:54:32;13.70;;;7.93;;
9082;SDS011;4577;48.704;9.000;2023-02-28T07:56:58;19.53;;;8.20;;
9082;SDS011;4577;48.704;9.000;2023-02-28T07:59:24;16.17;;;9.03;;
9082;SDS011;4577;48.704;9.000;2023-02-28T08:01:50;16.43;;;9.00;;
9082;SDS011;4577;48.704;9.000;2023-02-28T08:04:17;12.97;;;7.70;;
9082;SDS011;4577;48.704;9.000;2023-02-28T08:06:43;14.90;;;8.37;;
9082;SDS011;4577;48.704;9.000;2023-02-28T08:09:08;17.77;;;9.73;;
9082;SDS011;4577;48.704;9.000;2023-02-28T08:11:35;22.00;;;11.07;;
9082;SDS011;4577;48.704;9.000;2023-02-28T08:14:01;14.90;;;8.43;;
9082;SDS011;4577;48.704;9.000;2023-02-28T08:16:27;14.37;;;8.70;;
9082;SDS011;4577;48.704;9.000;2023-02-28T08:18:53;19.40;;;8.23;;
9082;SDS011;4577;48.704;9.000;2023-02-28T08:21:20;19.30;;;8.00;;
9082;SDS011;4577;48.704;9.000;2023-02-28T08:23:47;15.20;;;8.60;;
9082;SDS011;4577;48.704;9.000;2023-02-28T08:26:14;16.70;;;8.90;;
9082;SDS011;4577;48.704;9.000;2023-02-28T08:28:40;16.50;;;9.03;;
9082;SDS011;4577;48.704;9.000;2023-02-28T08:31:07;24.93;;;10.87;;
9082;SDS011;4577;48.704;9.000;2023-02-28T08:33:34;16.47;;;9.20;;
9082;SDS011;4577;48.704;9.000;2023-02-28T08:36:01;14.33;;;9.00;;
9082;SDS011;4577;48.704;9.000;2023-02-28T08:38:26;13.30;;;9.03;;
9082;SDS011;4577;48.704;9.000;2023-02-28T08:40:59;14.87;;;8.90;;
9082;SDS011;4577;48.704;9.000;2023-02-28T08:43:26;18.40;;;9.13;;
9082;SDS011;4577;48.704;9.000;2023-02-28T08:45:53;11.40;;;8.53;;
9082;SDS011;4577;48.704;9.000;2023-02-28T08:48:21;15.37;;;9.07;;
9082;SDS011;4577;48.704;9.000;2023-02-28T08:50:54;17.00;;;9.33;;
9082;SDS011;4577;48.704;9.000;2023-02-28T08:53:24;13.70;;;8.90;;
9082;SDS011;4577;48.704;9.000;2023-02-28T08:55:58;13.73;;;8.20;;
9082;SDS011;4577;48.704;9.000;2023-02-28T08:58:25;18.30;;;9.70;;
9082;SDS011;4577;48.704;9.000;2023-02-28T09:00:51;13.47;;;8.80;;
9082;SDS011;4577;48.704;9.000;2023-02-28T09:03:17;13.60;;;8.83;;
9082;SDS011;4577;48.704;9.000;2023-02-28T09:06:04;18.07;;;9.93;;
9082;SDS011;4577;48.704;9.000;2023-02-28T09:08:30;17.30;;;9.67;;
9082;SDS011;4577;48.704;9.000;2023-02-28T09:10:56;18.07;;;9.60;;
9082;SDS011;4577;48.704;9.000;2023-02-28T09:13:23;19.30;;;9.17;;
9082;SDS011;4577;48.704;9.000;2023-02-28T09:15:51;20.80;;;9.47;;
9082;SDS011;4577;48.704;9.000;2023-02-28T09:18:17;14.43;;;8.60;;
9082;SDS011;4577;48.704;9.000;2023-02-28T09:20:43;17.40;;;9.27;;
9082;SDS011;4577;48.704;9.000;2023-02-28T09:23:09;14.07;;;9.20;;
9082;SDS011;4577;48.704;9.000;2023-02-28T09:25:36;15.50;;;9.60;;
9082;SDS011;4577;48.704;9.000;2023-02-28T09:28:10;28.07;;;9.63;;
9082;SDS011;4577;48.704;9.000;2023-02-28T09:30:36;16.33;;;9.30;;
9082;SDS011;4577;48.704;9.000;2023-02-28T09:33:02;16.43;;;9.13;;
9082;SDS011;4577;48.704;9.000;2023-02-28T09:35:28;14.67;;;9.53;;
9082;SDS011;4577;48.704;9.000;2023-02-28T09:37:55;13.90;;;9.07;;
9082;SDS011;4577;48.704;9.000;2023-02-28T09:40:24;15.20;;;9.70;;
9082;SDS011;4577;48.704;9.000;2023-02-28T09:42:52;19.13;;;9.50;;
9082;SDS011;4577;48.704;9.000;2023-02-28T09:45:28;18.10;;;9.40;;
9082;SDS011;4577;48.704;9.000;2023-02-28T09:48:03;16.97;;;9.57;;
9082;SDS011;4577;48.704;9.000;2023-02-28T09:50:36;16.37;;;9.70;;
9082;SDS011;4577;48.704;9.000;2023-02-28T09:53:25;15.00;;;9.17;;
9082;SDS011;4577;48.704;9.000;2023-02-28T09:56:09;13.40;;;9.00;;
9082;SDS011;4577;48.704;9.000;2023-02-28T10:08:38;14.67;;;9.37;;
9082;SDS011;4577;48.704;9.000;2023-02-28T10:11:11;17.00;;;9.37;;
9082;SDS011;4577;48.704;9.000;2023-02-28T10:16:43;18.83;;;9.67;;
9082;SDS011;4577;48.704;9.000;2023-02-28T10:24:51;17.17;;;10.00;;
9082;SDS011;4577;48.704;9.000;2023-02-28T10:27:20;32.67;;;12.37;;
9082;SDS011;4577;48.704;9.000;2023-02-28T10:29:54;25.10;;;10.33;;
9082;SDS011;4577;48.704;9.000;2023-02-28T10:32:25;16.20;;;10.27;;
9082;SDS011;4577;48.704;9.000;2023-02-28T10:37:45;18.40;;;10.60;;
9082;SDS011;4577;48.704;9.000;2023-02-28T10:43:17;16.80;;;10.20;;
9082;SDS011;4577;48.704;9.000;2023-02-28T10:51:09;22.63;;;10.20;;
9082;SDS011;4577;48.704;9.000;2023-02-28T10:53:55;20.97;;;10.60;;
9082;SDS011;4577;48.704;9.000;2023-02-28T10:56:22;19.43;;;10.10;;
9082;SDS011;4577;48.704;9.000;2023-02-28T10:58:56;23.10;;;10.37;;
9082;SDS011;4577;48.704;9.000;2023-02-28T11:01:47;17.30;;;9.10;;
9082;SDS011;4577;48.704;9.000;2023-02-28T11:06:44;22.53;;;11.73;;
9082;SDS011;4577;48.704;9.000;2023-02-28T11:09:22;27.93;;;13.53;;
9082;SDS011;4577;48.704;9.000;2023-02-28T11:11:54;66.03;;;22.73;;
9082;SDS011;4577;48.704;9.000;2023-02-28T11:14:22;32.63;;;16.70;;
9082;SDS011;4577;48.704;9.000;2023-02-28T11:16:52;21.57;;;12.20;;
9082;SDS011;4577;48.704;9.000;2023-02-28T11:19:20;20.80;;;11.77;;
9082;SDS011;4577;48.704;9.000;2023-02-28T11:22:01;20.73;;;10.93;;
9082;SDS011;4577;48.704;9.000;2023-02-28T11:24:36;16.30;;;10.70;;
9082;SDS011;4577;48.704;9.000;2023-02-28T11:27:06;23.43;;;13.27;;
9082;SDS011;4577;48.704;9.000;2023-02-28T11:29:49;34.67;;;16.33;;
9082;SDS011;4577;48.704;9.000;2023-02-28T11:32:21;21.50;;;13.77;;
9082;SDS011;4577;48.704;9.000;2023-02-28T11:35:02;16.10;;;10.33;;
9082;SDS011;4577;48.704;9.000;2023-02-28T11:37:40;22.00;;;13.87;;
9082;SDS011;4577;48.704;9.000;2023-02-28T11:40:13;32.50;;;17.07;;
9082;SDS011;4577;48.704;9.000;2023-02-28T11:53:43;18.47;;;10.70;;
9082;SDS011;4577;48.704;9.000;2023-02-28T12:10:06;21.87;;;11.50;;
9082;SDS011;4577;48.704;9.000;2023-02-28T12:18:03;37.17;;;18.70;;
9082;SDS011;4577;48.704;9.000;2023-02-28T12:26:27;27.80;;;12.73;;
9082;SDS011;4577;48.704;9.000;2023-02-28T12:28:38;34.17;;;15.70;;
9082;SDS011;4577;48.704;9.000;2023-02-28T12:33:51;23.07;;;13.00;;
9082;SDS011;4577;48.704;9.000;2023-02-28T12:36:20;19.27;;;12.20;;
9082;SDS011;4577;48.704;9.000;2023-02-28T12:41:18;21.20;;;11.30;;
9082;SDS011;4577;48.704;9.000;2023-02-28T12:44:21;20.00;;;11.73;;
9082;SDS011;4577;48.704;9.000;2023-02-28T12:46:51;22.13;;;13.27;;
9082;SDS011;4577;48.704;9.000;2023-02-28T12:49:25;39.90;;;20.40;;
9082;SDS011;4577;48.704;9.000;2023-02-28T12:51:57;27.60;;;15.33;;
9082;SDS011;4577;48.704;9.000;2023-02-28T12:54:33;18.13;;;12.07;;
9082;SDS011;4577;48.704;9.000;2023-02-28T12:59:45;23.77;;;13.77;;
9082;SDS011;4577;48.704;9.000;2023-02-28T13:08:07;56.07;;;30.13;;
9082;SDS011;4577;48.704;9.000;2023-02-28T13:10:47;29.53;;;12.57;;
9082;SDS011;4577;48.704;9.000;2023-02-28T13:13:22;16.03;;;9.70;;
9082;SDS011;4577;48.704;9.000;2023-02-28T13:16:00;21.37;;;10.90;;
9082;SDS011;4577;48.704;9.000;2023-02-28T13:18:35;25.33;;;11.70;;
9082;SDS011;4577;48.704;9.000;2023-02-28T13:26:21;19.03;;;11.43;;
9082;SDS011;4577;48.704;9.000;2023-02-28T13:29:04;14.50;;;10.50;;
9082;SDS011;4577;48.704;9.000;2023-02-28T13:34:37;13.20;;;9.90;;
9082;SDS011;4577;48.704;9.000;2023-02-28T13:39:55;43.87;;;22.40;;
9082;SDS011;4577;48.704;9.000;2023-02-28T13:47:36;15.83;;;10.83;;
9082;SDS011;4577;48.704;9.000;2023-02-28T13:50:21;15.60;;;10.70;;
9082;SDS011;4577;48.704;9.000;2023-02-28T13:55:51;21.53;;;11.17;;
9082;SDS011;4577;48.704;9.000;2023-02-28T14:03:17;18.63;;;11.80;;
9082;SDS011;4577;48.704;9.000;2023-02-28T14:09:02;16.30;;;10.83;;
9082;SDS011;4577;48.704;9.000;2023-02-28T14:11:45;27.97;;;15.43;;
9082;SDS011;4577;48.704;9.000;2023-02-28T14:17:05;22.03;;;12.07;;
9082;SDS011;4577;48.704;9.000;2023-02-28T14:19:44;17.13;;;11.47;;
9082;SDS011;4577;48.704;9.000;2023-02-28T14:22:37;27.73;;;11.87;;
9082;SDS011;4577;48.704;9.000;2023-02-28T14:25:16;28.70;;;14.83;;
9082;SDS011;4577;48.704;9.000;2023-02-28T14:30:36;44.87;;;21.37;;
9082;SDS011;4577;48.704;9.000;2023-02-28T14:36:12;37.00;;;18.70;;
9082;SDS011;4577;48.704;9.000;2023-02-28T14:41:20;53.90;;;24.97;;
9082;SDS011;4577;48.704;9.000;2023-02-28T14:43:50;20.83;;;14.20;;
9082;SDS011;4577;48.704;9.000;2023-02-28T14:46:27;24.83;;;14.23;;
9082;SDS011;4577;48.704;9.000;2023-02-28T14:49:01;20.73;;;11.53;;
9082;SDS011;4577;48.704;9.000;2023-02-28T14:51:30;31.27;;;16.83;;
9082;SDS011;4577;48.704;9.000;2023-02-28T14:53:59;15.37;;;10.70;;
9082;SDS011;4577;48.704;9.000;2023-02-28T14:56:34;18.67;;;13.03;;
9082;SDS011;4577;48.704;9.000;2023-02-28T14:59:02;54.20;;;29.67;;
9082;SDS011;4577;48.704;9.000;2023-02-28T15:01:28;39.50;;;23.03;;
9082;SDS011;4577;48.704;9.000;2023-02-28T15:04:05;34.30;;;19.00;;
9082;SDS011;4577;48.704;9.000;2023-02-28T15:06:40;21.87;;;12.97;;
9082;SDS011;4577;48.704;9.000;2023-02-28T15:09:24;68.10;;;35.00;;
9082;SDS011;4577;48.704;9.000;2023-02-28T15:11:50;29.93;;;16.00;;
9082;SDS011;4577;48.704;9.000;2023-02-28T15:14:17;18.20;;;10.60;;
9082;SDS011;4577;48.704;9.000;2023-02-28T15:16:46;16.93;;;10.43;;
9082;SDS011;4577;48.704;9.000;2023-02-28T15:19:33;17.33;;;10.03;;
9082;SDS011;4577;48.704;9.000;2023-02-28T15:22:04;17.03;;;10.30;;
9082;SDS011;4577;48.704;9.000;2023-02-28T15:24:38;14.80;;;10.43;;
9082;SDS011;4577;48.704;9.000;2023-02-28T15:27:12;17.03;;;10.60;;
9082;SDS011;4577;48.704;9.000;2023-02-28T15:29:43;38.43;;;20.50;;
9082;SDS011;4577;48.704;9.000;2023-02-28T15:32:32;62.70;;;30.27;;
9082;SDS011;4577;48.704;9.000;2023-02-28T15:37:53;36.97;;;19.57;;
9082;SDS011;4577;48.704;9.000;2023-02-28T15:40:23;15.37;;;10.33;;
9082;SDS011;4577;48.704;9.000;2023-02-28T15:42:59;19.40;;;11.40;;
9082;SDS011;4577;48.704;9.000;2023-02-28T15:48:12;41.67;;;20.37;;
9082;SDS011;4577;48.704;9.000;2023-02-28T15:50:46;67.83;;;30.70;;
9082;SDS011;4577;48.704;9.000;2023-02-28T15:53:22;54.50;;;25.77;;
9082;SDS011;4577;48.704;9.000;2023-02-28T15:55:55;33.97;;;18.97;;
9082;SDS011;4577;48.704;9.000;2023-02-28T15:58:30;21.17;;;12.97;;
9082;SDS011;4577;48.704;9.000;2023-02-28T16:01:07;17.67;;;11.20;;
9082;SDS011;4577;48.704;9.000;2023-02-28T16:03:48;23.47;;;13.83;;
9082;SDS011;4577;48.704;9.000;2023-02-28T16:08:42;43.80;;;20.30;;
9082;SDS011;4577;48.704;9.000;2023-02-28T16:11:09;19.93;;;12.80;;
9082;SDS011;4577;48.704;9.000;2023-02-28T16:13:36;29.40;;;17.47;;
9082;SDS011;4577;48.704;9.000;2023-02-28T16:16:02;27.07;;;14.80;;
9082;SDS011;4577;48.704;9.000;2023-02-28T16:18:28;28.63;;;16.30;;
9082;SDS011;4577;48.704;9.000;2023-02-28T16:20:54;25.20;;;15.17;;
9082;SDS011;4577;48.704;9.000;2023-02-28T16:23:20;19.23;;;12.37;;
9082;SDS011;4577;48.704;9.000;2023-02-28T16:25:46;20.50;;;11.13;;
9082;SDS011;4577;48.704;9.000;2023-02-28T16:28:16;14.80;;;10.63;;
9082;SDS011;4577;48.704;9.000;2023-02-28T16:30:53;19.77;;;12.27;;
9082;SDS011;4577;48.704;9.000;2023-02-28T16:33:19;37.40;;;18.53;;
9082;SDS011;4577;48.704;9.000;2023-02-28T16:35:44;21.33;;;12.30;;
9082;SDS011;4577;48.704;9.000;2023-02-28T16:38:10;17.60;;;11.43;;
9082;SDS011;4577;48.704;9.000;2023-02-28T16:40:36;15.53;;;10.70;;
9082;SDS011;4577;48.704;9.000;2023-02-28T16:43:15;21.20;;;13.13;;
9082;SDS011;4577;48.704;9.000;2023-02-28T16:45:44;27.90;;;17.20;;
9082;SDS011;4577;48.704;9.000;2023-02-28T16:48:11;39.53;;;20.20;;
9082;SDS011;4577;48.704;9.000;2023-02-28T16:50:38;20.27;;;12.70;;
9082;SDS011;4577;48.704;9.000;2023-02-28T16:53:04;20.27;;;13.30;;
9082;SDS011;4577;48.704;9.000;2023-02-28T16:55:31;35.17;;;21.40;;
9082;SDS011;4577;48.704;9.000;2023-02-28T16:57:57;34.20;;;20.30;;
9082;SDS011;4577;48.704;9.000;2023-02-28T17:00:24;41.87;;;21.57;;
9082;SDS011;4577;48.704;9.000;2023-02-28T17:02:52;37.40;;;19.60;;
9082;SDS011;4577;48.704;9.000;2023-02-28T17:05:18;30.73;;;16.40;;
9082;SDS011;4577;48.704;9.000;2023-02-28T17:07:45;20.20;;;12.83;;
9082;SDS011;4577;48.704;9.000;2023-02-28T17:10:25;26.17;;;15.20;;
9082;SDS011;4577;48.704;9.000;2023-02-28T17:12:51;36.87;;;19.10;;
9082;SDS011;4577;48.704;9.000;2023-02-28T17:15:18;25.53;;;14.03;;
9082;SDS011;4577;48.704;9.000;2023-02-28T17:17:44;33.27;;;16.80;;
9082;SDS011;4577;48.704;9.000;2023-02-28T17:20:15;38.70;;;20.13;;
9082;SDS011;4577;48.704;9.000;2023-02-28T17:22:42;23.63;;;13.23;;
9082;SDS011;4577;48.704;9.000;2023-02-28T17:25:08;25.03;;;13.80;;
9082;SDS011;4577;48.704;9.000;2023-02-28T17:27:35;22.80;;;13.60;;
9082;SDS011;4577;48.704;9.000;2023-02-28T17:30:03;26.20;;;13.40;;
9082;SDS011;4577;48.704;9.000;2023-02-28T17:32:49;24.17;;;13.43;;
9082;SDS011;4577;48.704;9.000;2023-02-28T17:35:14;28.90;;;13.30;;
9082;SDS011;4577;48.704;9.000;2023-02-28T17:37:41;24.30;;;13.27;;
9082;SDS011;4577;48.704;9.000;2023-02-28T17:40:12;18.10;;;11.50;;
9082;SDS011;4577;48.704;9.000;2023-02-28T17:42:39;67.23;;;27.40;;
9082;SDS011;4577;48.704;9.000;2023-02-28T17:45:05;50.23;;;22.53;;
9082;SDS011;4577;48.704;9.000;2023-02-28T17:47:31;37.20;;;18.87;;
9082;SDS011;4577;48.704;9.000;2023-02-28T17:49:57;27.30;;;15.53;;
9082;SDS011;4577;48.704;9.000;2023-02-28T17:52:23;30.70;;;17.20;;
9082;SDS011;4577;48.704;9.000;2023-02-28T17:54:49;30.20;;;16.20;;
9082;SDS011;4577;48.704;9.000;2023-02-28T17:57:15;26.63;;;14.53;;
9082;SDS011;4577;48.704;9.000;2023-02-28T17:59:43;24.10;;;13.40;;